Milwaukee, Wisconsin
Traffic Map
Current Weather Conditions
Milwaukee, Wisconsin
Overcast
Overcast
23°
Feels Like: 23°
Wind Chill: 23° Ceiling: 11000
Heat Index: 23° Visibility: 10mi
Dew Point: 17° Wind: 18mph
Humidity: 68% Direction: 240° (WSW)
Pressure: 29.79in Gusts: 24mph
Raw Report DataKMKE 201952Z 24016G21KT 10SM FEW030 FEW045 OVC110 23/17 A2979 RMK AO2 PK WND 23026/1906 RAB17E44 SLP083 P0000 T02330172 $
Traffic Incident Summary
Active as of:
Severity:
Category:
InformationThere was an issue retrieving the traffic information for this location. Please try a different location or try again shortly.
Advertisements
Track Severe Weather on mobile